sensor_id;sensor_type;location;lat;lon;timestamp;pressure;altitude;pressure_sealevel;temperature;humidity
56894;BME280;43392;50.078;13.704;2024-02-26T00:00:49;95651.44;;;2.25;84.66
56894;BME280;43392;50.078;13.704;2024-02-26T00:03:15;95655.06;;;2.19;84.80
56894;BME280;43392;50.078;13.704;2024-02-26T00:05:42;95652.47;;;2.24;85.05
56894;BME280;43392;50.078;13.704;2024-02-26T00:08:09;95652.97;;;2.21;84.82
56894;BME280;43392;50.078;13.704;2024-02-26T00:10:35;95652.19;;;2.20;84.77
56894;BME280;43392;50.078;13.704;2024-02-26T00:13:02;95652.44;;;2.19;84.83
56894;BME280;43392;50.078;13.704;2024-02-26T00:15:28;95650.56;;;2.14;85.00
56894;BME280;43392;50.078;13.704;2024-02-26T00:17:56;95651.00;;;2.06;85.30
56894;BME280;43392;50.078;13.704;2024-02-26T00:20:23;95653.41;;;2.08;85.33
56894;BME280;43392;50.078;13.704;2024-02-26T00:22:49;95654.97;;;2.03;85.36
56894;BME280;43392;50.078;13.704;2024-02-26T00:25:16;95647.78;;;1.99;85.34
56894;BME280;43392;50.078;13.704;2024-02-26T00:27:43;95651.25;;;1.99;85.49
56894;BME280;43392;50.078;13.704;2024-02-26T00:30:10;95646.50;;;2.01;85.69
56894;BME280;43392;50.078;13.704;2024-02-26T00:32:37;95653.66;;;2.06;85.85
56894;BME280;43392;50.078;13.704;2024-02-26T00:35:06;95652.09;;;2.05;86.06
56894;BME280;43392;50.078;13.704;2024-02-26T00:37:34;95642.00;;;2.02;86.39
56894;BME280;43392;50.078;13.704;2024-02-26T00:40:01;95646.84;;;2.10;85.95
56894;BME280;43392;50.078;13.704;2024-02-26T00:42:28;95640.19;;;2.08;85.94
56894;BME280;43392;50.078;13.704;2024-02-26T00:44:54;95636.78;;;2.12;86.23
56894;BME280;43392;50.078;13.704;2024-02-26T00:47:21;95625.19;;;2.18;86.43
56894;BME280;43392;50.078;13.704;2024-02-26T00:49:47;95628.41;;;2.20;86.46
56894;BME280;43392;50.078;13.704;2024-02-26T00:52:15;95630.84;;;2.32;86.36
56894;BME280;43392;50.078;13.704;2024-02-26T00:54:42;95629.03;;;2.37;86.25
56894;BME280;43392;50.078;13.704;2024-02-26T00:57:08;95627.44;;;2.41;86.53
56894;BME280;43392;50.078;13.704;2024-02-26T00:59:35;95617.94;;;2.45;86.62
56894;BME280;43392;50.078;13.704;2024-02-26T01:02:02;95617.09;;;2.40;86.65
56894;BME280;43392;50.078;13.704;2024-02-26T01:04:30;95611.81;;;2.35;87.10
56894;BME280;43392;50.078;13.704;2024-02-26T01:06:57;95614.72;;;2.38;87.25
56894;BME280;43392;50.078;13.704;2024-02-26T01:09:25;95611.59;;;2.46;87.37
56894;BME280;43392;50.078;13.704;2024-02-26T01:11:51;95603.47;;;2.58;87.45
56894;BME280;43392;50.078;13.704;2024-02-26T01:14:18;95603.72;;;2.56;87.37
56894;BME280;43392;50.078;13.704;2024-02-26T01:16:45;95605.28;;;2.52;87.72
56894;BME280;43392;50.078;13.704;2024-02-26T01:19:11;95599.97;;;2.52;87.68
56894;BME280;43392;50.078;13.704;2024-02-26T01:21:38;95601.31;;;2.55;87.91
56894;BME280;43392;50.078;13.704;2024-02-26T01:24:05;95585.75;;;2.58;88.05
56894;BME280;43392;50.078;13.704;2024-02-26T01:26:33;95591.06;;;2.63;88.22
56894;BME280;43392;50.078;13.704;2024-02-26T01:29:00;95585.50;;;2.70;88.08
56894;BME280;43392;50.078;13.704;2024-02-26T01:31:26;95589.78;;;2.76;88.23
56894;BME280;43392;50.078;13.704;2024-02-26T01:33:53;95583.16;;;2.74;88.00
56894;BME280;43392;50.078;13.704;2024-02-26T01:36:20;95584.50;;;2.76;88.05
56894;BME280;43392;50.078;13.704;2024-02-26T01:38:47;95572.56;;;2.79;88.29
56894;BME280;43392;50.078;13.704;2024-02-26T01:41:14;95575.22;;;2.84;88.39
56894;BME280;43392;50.078;13.704;2024-02-26T01:43:42;95567.84;;;2.86;88.23
56894;BME280;43392;50.078;13.704;2024-02-26T01:46:11;95569.94;;;2.84;88.51
56894;BME280;43392;50.078;13.704;2024-02-26T01:48:40;95574.19;;;2.90;88.77
56894;BME280;43392;50.078;13.704;2024-02-26T01:51:07;95575.25;;;2.94;89.05
56894;BME280;43392;50.078;13.704;2024-02-26T01:53:34;95571.56;;;2.95;88.74
56894;BME280;43392;50.078;13.704;2024-02-26T01:56:01;95566.25;;;2.90;88.71
56894;BME280;43392;50.078;13.704;2024-02-26T01:58:28;95572.06;;;2.92;89.04
56894;BME280;43392;50.078;13.704;2024-02-26T02:00:57;95555.66;;;2.90;89.00
56894;BME280;43392;50.078;13.704;2024-02-26T02:03:24;95555.16;;;2.93;88.91
56894;BME280;43392;50.078;13.704;2024-02-26T02:05:51;95550.34;;;2.85;88.88
56894;BME280;43392;50.078;13.704;2024-02-26T02:08:17;95550.34;;;2.80;89.17
56894;BME280;43392;50.078;13.704;2024-02-26T02:10:45;95551.16;;;2.80;89.69
56894;BME280;43392;50.078;13.704;2024-02-26T02:13:13;95552.47;;;2.83;89.67
56894;BME280;43392;50.078;13.704;2024-02-26T02:15:39;95546.91;;;2.84;89.63
56894;BME280;43392;50.078;13.704;2024-02-26T02:18:07;95555.94;;;2.88;89.97
56894;BME280;43392;50.078;13.704;2024-02-26T02:20:35;95555.13;;;2.88;89.90
56894;BME280;43392;50.078;13.704;2024-02-26T02:23:02;95549.56;;;2.89;90.02
56894;BME280;43392;50.078;13.704;2024-02-26T02:25:29;95548.78;;;2.89;90.05
56894;BME280;43392;50.078;13.704;2024-02-26T02:27:56;95556.97;;;2.87;90.45
56894;BME280;43392;50.078;13.704;2024-02-26T02:30:25;95558.59;;;2.88;90.40
56894;BME280;43392;50.078;13.704;2024-02-26T02:32:53;95565.72;;;2.88;90.54
56894;BME280;43392;50.078;13.704;2024-02-26T02:35:20;95568.38;;;2.88;90.37
56894;BME280;43392;50.078;13.704;2024-02-26T02:37:48;95571.03;;;2.88;90.52
56894;BME280;43392;50.078;13.704;2024-02-26T02:40:14;95574.19;;;2.85;90.42
56894;BME280;43392;50.078;13.704;2024-02-26T02:42:41;95575.22;;;2.74;90.55
56894;BME280;43392;50.078;13.704;2024-02-26T02:45:08;95574.63;;;2.66;90.94
56894;BME280;43392;50.078;13.704;2024-02-26T02:47:36;95574.88;;;2.60;91.39
56894;BME280;43392;50.078;13.704;2024-02-26T02:50:02;95572.50;;;2.58;91.73
56894;BME280;43392;50.078;13.704;2024-02-26T02:52:29;95579.38;;;2.59;91.94
56894;BME280;43392;50.078;13.704;2024-02-26T02:54:58;95580.72;;;2.62;91.83
56894;BME280;43392;50.078;13.704;2024-02-26T02:57:24;95574.63;;;2.56;91.88
56894;BME280;43392;50.078;13.704;2024-02-26T02:59:51;95578.59;;;2.59;92.35
56894;BME280;43392;50.078;13.704;2024-02-26T03:02:17;95574.88;;;2.60;92.11
56894;BME280;43392;50.078;13.704;2024-02-26T03:04:44;95586.00;;;2.62;92.13
56894;BME280;43392;50.078;13.704;2024-02-26T03:07:10;95583.91;;;2.59;92.19
56894;BME280;43392;50.078;13.704;2024-02-26T03:09:37;95580.94;;;2.55;92.39
56894;BME280;43392;50.078;13.704;2024-02-26T03:12:05;95583.09;;;2.58;92.78
56894;BME280;43392;50.078;13.704;2024-02-26T03:14:32;95578.88;;;2.62;92.68
56894;BME280;43392;50.078;13.704;2024-02-26T03:16:58;95576.25;;;2.67;92.72
56894;BME280;43392;50.078;13.704;2024-02-26T03:19:25;95581.81;;;2.71;92.46
56894;BME280;43392;50.078;13.704;2024-02-26T03:21:51;95570.44;;;2.76;92.27
56894;BME280;43392;50.078;13.704;2024-02-26T03:24:18;95578.44;;;2.86;92.31
56894;BME280;43392;50.078;13.704;2024-02-26T03:26:44;95581.06;;;2.91;92.09
56894;BME280;43392;50.078;13.704;2024-02-26T03:29:12;95569.97;;;2.94;91.74
56894;BME280;43392;50.078;13.704;2024-02-26T03:31:39;95568.91;;;2.95;91.66
56894;BME280;43392;50.078;13.704;2024-02-26T03:34:05;95575.53;;;2.97;91.33
56894;BME280;43392;50.078;13.704;2024-02-26T03:36:32;95570.22;;;2.87;91.35
56894;BME280;43392;50.078;13.704;2024-02-26T03:38:58;95567.53;;;2.77;91.60
56894;BME280;43392;50.078;13.704;2024-02-26T03:41:25;95566.19;;;2.69;92.11
56894;BME280;43392;50.078;13.704;2024-02-26T03:43:52;95568.59;;;2.76;92.38
56894;BME280;43392;50.078;13.704;2024-02-26T03:46:19;95556.44;;;2.85;92.09
56894;BME280;43392;50.078;13.704;2024-02-26T03:48:46;95565.97;;;2.91;92.02
56894;BME280;43392;50.078;13.704;2024-02-26T03:51:13;95569.72;;;2.95;91.83
56894;BME280;43392;50.078;13.704;2024-02-26T03:53:39;95569.72;;;2.95;91.71
56894;BME280;43392;50.078;13.704;2024-02-26T03:56:06;95576.06;;;2.94;91.63
56894;BME280;43392;50.078;13.704;2024-02-26T03:58:33;95576.56;;;2.91;91.91
56894;BME280;43392;50.078;13.704;2024-02-26T04:01:00;95572.31;;;2.80;91.91
56894;BME280;43392;50.078;13.704;2024-02-26T04:03:28;95577.06;;;2.73;92.29
56894;BME280;43392;50.078;13.704;2024-02-26T04:05:54;95580.25;;;2.75;92.70
56894;BME280;43392;50.078;13.704;2024-02-26T04:08:21;95571.50;;;2.75;92.78
56894;BME280;43392;50.078;13.704;2024-02-26T04:10:47;95573.63;;;2.73;92.70
56894;BME280;43392;50.078;13.704;2024-02-26T04:13:14;95565.13;;;2.71;92.79
56894;BME280;43392;50.078;13.704;2024-02-26T04:15:41;95563.78;;;2.63;93.05
56894;BME280;43392;50.078;13.704;2024-02-26T04:18:07;95564.56;;;2.58;93.39
56894;BME280;43392;50.078;13.704;2024-02-26T04:20:35;95562.97;;;2.57;93.54
56894;BME280;43392;50.078;13.704;2024-02-26T04:23:02;95570.34;;;2.50;93.54
56894;BME280;43392;50.078;13.704;2024-02-26T04:25:29;95577.25;;;2.51;93.97
56894;BME280;43392;50.078;13.704;2024-02-26T04:27:55;95579.63;;;2.53;94.03
56894;BME280;43392;50.078;13.704;2024-02-26T04:30:22;95577.25;;;2.51;94.21
56894;BME280;43392;50.078;13.704;2024-02-26T04:32:49;95578.81;;;2.52;94.27
56894;BME280;43392;50.078;13.704;2024-02-26T04:35:15;95589.41;;;2.52;94.08
56894;BME280;43392;50.078;13.704;2024-02-26T04:37:43;95578.84;;;2.57;94.36
56894;BME280;43392;50.078;13.704;2024-02-26T04:40:10;95579.63;;;2.53;94.20
56894;BME280;43392;50.078;13.704;2024-02-26T04:42:37;95586.50;;;2.54;94.13
56894;BME280;43392;50.078;13.704;2024-02-26T04:45:04;95595.25;;;2.59;94.12
56894;BME280;43392;50.078;13.704;2024-02-26T04:47:32;95595.78;;;2.56;93.96
56894;BME280;43392;50.078;13.704;2024-02-26T04:49:58;95604.25;;;2.58;93.95
56894;BME280;43392;50.078;13.704;2024-02-26T04:52:25;95599.78;;;2.64;94.03
56894;BME280;43392;50.078;13.704;2024-02-26T04:54:53;95585.22;;;2.56;93.54
56894;BME280;43392;50.078;13.704;2024-02-26T04:57:21;95593.88;;;2.52;93.70
56894;BME280;43392;50.078;13.704;2024-02-26T04:59:47;95593.88;;;2.52;94.05
56894;BME280;43392;50.078;13.704;2024-02-26T05:02:14;95586.78;;;2.57;94.16
56894;BME280;43392;50.078;13.704;2024-02-26T05:04:41;95591.84;;;2.59;94.27
56894;BME280;43392;50.078;13.704;2024-02-26T05:07:07;95592.06;;;2.57;94.13
56894;BME280;43392;50.078;13.704;2024-02-26T05:09:34;95599.75;;;2.54;94.46
56894;BME280;43392;50.078;13.704;2024-02-26T05:12:03;95599.44;;;2.50;94.53
56894;BME280;43392;50.078;13.704;2024-02-26T05:14:30;95594.13;;;2.45;94.83
56894;BME280;43392;50.078;13.704;2024-02-26T05:16:57;95597.84;;;2.44;95.16
56894;BME280;43392;50.078;13.704;2024-02-26T05:19:23;95602.38;;;2.49;95.43
56894;BME280;43392;50.078;13.704;2024-02-26T05:21:50;95601.31;;;2.55;95.56
56894;BME280;43392;50.078;13.704;2024-02-26T05:24:16;95601.09;;;2.56;95.59
56894;BME280;43392;50.078;13.704;2024-02-26T05:26:43;95598.44;;;2.56;95.94
56894;BME280;43392;50.078;13.704;2024-02-26T05:29:11;95603.75;;;2.66;96.10
56894;BME280;43392;50.078;13.704;2024-02-26T05:31:38;95594.50;;;2.74;95.84
56894;BME280;43392;50.078;13.704;2024-02-26T05:34:04;95598.53;;;2.82;95.80
56894;BME280;43392;50.078;13.704;2024-02-26T05:36:31;95593.00;;;2.88;95.59
56894;BME280;43392;50.078;13.704;2024-02-26T05:38:58;95593.25;;;2.87;95.38
56894;BME280;43392;50.078;13.704;2024-02-26T05:41:25;95593.78;;;2.89;95.64
56894;BME280;43392;50.078;13.704;2024-02-26T05:43:52;95585.84;;;2.94;95.46
56894;BME280;43392;50.078;13.704;2024-02-26T05:46:20;95594.88;;;2.93;95.17
56894;BME280;43392;50.078;13.704;2024-02-26T05:48:48;95596.44;;;2.99;95.32
56894;BME280;43392;50.078;13.704;2024-02-26T05:51:15;95588.00;;;3.02;95.27
56894;BME280;43392;50.078;13.704;2024-02-26T05:53:41;95595.69;;;3.08;95.15
56894;BME280;43392;50.078;13.704;2024-02-26T05:56:08;95609.22;;;3.12;95.05
56894;BME280;43392;50.078;13.704;2024-02-26T05:58:34;95600.19;;;3.13;94.93
56894;BME280;43392;50.078;13.704;2024-02-26T06:01:01;95598.06;;;3.15;94.77
56894;BME280;43392;50.078;13.704;2024-02-26T06:03:29;95605.25;;;3.19;95.05
56894;BME280;43392;50.078;13.704;2024-02-26T06:05:56;95600.22;;;3.23;94.68
56894;BME280;43392;50.078;13.704;2024-02-26T06:08:23;95601.31;;;3.27;94.66
56894;BME280;43392;50.078;13.704;2024-02-26T06:10:49;95607.38;;;3.27;94.51
56894;BME280;43392;50.078;13.704;2024-02-26T06:13:16;95605.00;;;3.26;94.54
56894;BME280;43392;50.078;13.704;2024-02-26T06:15:42;95608.97;;;3.28;94.72
56894;BME280;43392;50.078;13.704;2024-02-26T06:18:09;95615.31;;;3.27;94.65
56894;BME280;43392;50.078;13.704;2024-02-26T06:20:37;95619.31;;;3.35;94.72
56894;BME280;43392;50.078;13.704;2024-02-26T06:23:03;95615.09;;;3.39;94.67
56894;BME280;43392;50.078;13.704;2024-02-26T06:25:30;95614.84;;;3.41;94.51
56894;BME280;43392;50.078;13.704;2024-02-26T06:27:56;95612.97;;;3.36;94.15
56894;BME280;43392;50.078;13.704;2024-02-26T06:30:23;95625.16;;;3.42;94.42
56894;BME280;43392;50.078;13.704;2024-02-26T06:32:50;95625.69;;;3.44;94.48
56894;BME280;43392;50.078;13.704;2024-02-26T06:35:16;95625.16;;;3.42;94.12
56894;BME280;43392;50.078;13.704;2024-02-26T06:37:44;95619.06;;;3.42;94.22
56894;BME280;43392;50.078;13.704;2024-02-26T06:40:11;95626.47;;;3.40;94.19
56894;BME280;43392;50.078;13.704;2024-02-26T06:42:37;95628.34;;;3.39;94.44
56894;BME280;43392;50.078;13.704;2024-02-26T06:45:05;95628.34;;;3.39;94.38
56894;BME280;43392;50.078;13.704;2024-02-26T06:47:32;95619.06;;;3.42;94.55
56894;BME280;43392;50.078;13.704;2024-02-26T06:49:59;95629.66;;;3.47;94.77
56894;BME280;43392;50.078;13.704;2024-02-26T06:52:26;95629.94;;;3.50;94.33
56894;BME280;43392;50.078;13.704;2024-02-26T06:54:54;95634.47;;;3.55;94.39
56894;BME280;43392;50.078;13.704;2024-02-26T06:57:20;95640.56;;;3.55;94.38
56894;BME280;43392;50.078;13.704;2024-02-26T06:59:47;95638.44;;;3.52;94.41
56894;BME280;43392;50.078;13.704;2024-02-26T07:02:14;95634.19;;;3.51;94.35
56894;BME280;43392;50.078;13.704;2024-02-26T07:04:41;95637.38;;;3.53;94.39
56894;BME280;43392;50.078;13.704;2024-02-26T07:07:08;95639.47;;;3.56;94.30
56894;BME280;43392;50.078;13.704;2024-02-26T07:09:35;95641.88;;;3.58;94.10
56894;BME280;43392;50.078;13.704;2024-02-26T07:12:04;95634.97;;;3.57;94.10
56894;BME280;43392;50.078;13.704;2024-02-26T07:14:30;95645.34;;;3.58;94.07
56894;BME280;43392;50.078;13.704;2024-02-26T07:16:57;95651.41;;;3.64;93.83
56894;BME280;43392;50.078;13.704;2024-02-26T07:19:24;95650.38;;;3.65;93.43
56894;BME280;43392;50.078;13.704;2024-02-26T07:21:50;95655.69;;;3.70;93.39
56894;BME280;43392;50.078;13.704;2024-02-26T07:24:17;95659.66;;;4.28;98.67
56894;BME280;43392;50.078;13.704;2024-02-26T07:26:44;95654.19;;;4.93;95.78
56894;BME280;43392;50.078;13.704;2024-02-26T07:29:12;95652.03;;;5.00;92.79
56894;BME280;43392;50.078;13.704;2024-02-26T07:31:38;95653.94;;;4.90;91.42
56894;BME280;43392;50.078;13.704;2024-02-26T07:34:05;95652.66;;;4.77;90.55
56894;BME280;43392;50.078;13.704;2024-02-26T07:36:31;95651.38;;;4.64;90.03
56894;BME280;43392;50.078;13.704;2024-02-26T07:38:58;95662.81;;;4.50;90.24
56894;BME280;43392;50.078;13.704;2024-02-26T07:41:24;95666.00;;;4.42;90.31
56894;BME280;43392;50.078;13.704;2024-02-26T07:43:51;95665.50;;;4.35;90.31
56894;BME280;43392;50.078;13.704;2024-02-26T07:46:19;95661.00;;;4.30;90.43
56894;BME280;43392;50.078;13.704;2024-02-26T07:48:45;95655.41;;;4.27;90.34
56894;BME280;43392;50.078;13.704;2024-02-26T07:51:12;95653.31;;;4.24;90.35
56894;BME280;43392;50.078;13.704;2024-02-26T07:53:39;95644.28;;;4.15;90.16
56894;BME280;43392;50.078;13.704;2024-02-26T07:56:06;95647.72;;;4.15;90.09
56894;BME280;43392;50.078;13.704;2024-02-26T07:58:33;95645.88;;;4.11;90.04
56894;BME280;43392;50.078;13.704;2024-02-26T08:00:59;95645.34;;;4.09;89.77
56894;BME280;43392;50.078;13.704;2024-02-26T08:03:27;95658.34;;;4.05;89.95
56894;BME280;43392;50.078;13.704;2024-02-26T08:05:54;95663.91;;;4.03;89.73
56894;BME280;43392;50.078;13.704;2024-02-26T08:08:21;95662.31;;;4.02;89.83
56894;BME280;43392;50.078;13.704;2024-02-26T08:10:48;95662.31;;;4.02;89.93
56894;BME280;43392;50.078;13.704;2024-02-26T08:13:14;95668.69;;;4.01;89.99
56894;BME280;43392;50.078;13.704;2024-02-26T08:15:41;95662.31;;;4.02;90.02
56894;BME280;43392;50.078;13.704;2024-02-26T08:18:07;95677.72;;;4.06;90.16
56894;BME280;43392;50.078;13.704;2024-02-26T08:20:35;95669.47;;;4.07;90.16
56894;BME280;43392;50.078;13.704;2024-02-26T08:23:02;95679.84;;;4.09;90.10
56894;BME280;43392;50.078;13.704;2024-02-26T08:25:29;95685.16;;;4.09;90.03
56894;BME280;43392;50.078;13.704;2024-02-26T08:27:55;95679.56;;;4.10;90.30
56894;BME280;43392;50.078;13.704;2024-02-26T08:30:22;95691.78;;;4.16;90.23
56894;BME280;43392;50.078;13.704;2024-02-26T08:32:49;95694.69;;;4.20;90.03
56894;BME280;43392;50.078;13.704;2024-02-26T08:35:15;95688.84;;;4.23;90.03
56894;BME280;43392;50.078;13.704;2024-02-26T08:37:45;95696.00;;;4.27;89.92
56894;BME280;43392;50.078;13.704;2024-02-26T08:40:12;95690.69;;;4.27;89.81
56894;BME280;43392;50.078;13.704;2024-02-26T08:42:39;95694.41;;;4.31;89.77
56894;BME280;43392;50.078;13.704;2024-02-26T08:45:06;95703.16;;;4.32;89.60
56894;BME280;43392;50.078;13.704;2024-02-26T08:47:33;95703.97;;;4.27;89.84
56894;BME280;43392;50.078;13.704;2024-02-26T08:50:00;95694.41;;;4.31;90.01
56894;BME280;43392;50.078;13.704;2024-02-26T08:52:26;95700.25;;;4.33;89.58
56894;BME280;43392;50.078;13.704;2024-02-26T08:54:53;95693.63;;;4.36;89.47
56894;BME280;43392;50.078;13.704;2024-02-26T08:57:20;95700.50;;;4.37;89.60
56894;BME280;43392;50.078;13.704;2024-02-26T08:59:46;95702.63;;;4.40;89.54
56894;BME280;43392;50.078;13.704;2024-02-26T09:02:13;95699.19;;;4.44;89.41
56894;BME280;43392;50.078;13.704;2024-02-26T09:04:39;95696.00;;;4.47;89.24
56894;BME280;43392;50.078;13.704;2024-02-26T09:07:06;95694.91;;;4.48;89.30
56894;BME280;43392;50.078;13.704;2024-02-26T09:09:32;95705.28;;;4.50;89.07
56894;BME280;43392;50.078;13.704;2024-02-26T09:12:00;95695.47;;;4.50;88.98
56894;BME280;43392;50.078;13.704;2024-02-26T09:14:27;95696.81;;;4.48;88.85
56894;BME280;43392;50.078;13.704;2024-02-26T09:16:53;95690.41;;;4.44;88.87
56894;BME280;43392;50.078;13.704;2024-02-26T09:19:20;95687.50;;;4.45;89.05
56894;BME280;43392;50.078;13.704;2024-02-26T09:21:46;95685.09;;;4.49;89.06
56894;BME280;43392;50.078;13.704;2024-02-26T09:24:13;95691.22;;;4.49;89.08
56894;BME280;43392;50.078;13.704;2024-02-26T09:26:40;95689.06;;;4.56;89.16
56894;BME280;43392;50.078;13.704;2024-02-26T09:29:08;95691.44;;;4.58;89.14
56894;BME280;43392;50.078;13.704;2024-02-26T09:31:34;95683.47;;;4.63;89.02
56894;BME280;43392;50.078;13.704;2024-02-26T09:34:01;95694.63;;;4.70;88.73
56894;BME280;43392;50.078;13.704;2024-02-26T09:36:27;95702.97;;;5.27;92.92
56894;BME280;43392;50.078;13.704;2024-02-26T09:38:54;95695.53;;;6.17;93.54
56894;BME280;43392;50.078;13.704;2024-02-26T09:41:20;95709.16;;;6.73;89.29
56894;BME280;43392;50.078;13.704;2024-02-26T09:43:48;95707.06;;;6.70;85.82
56894;BME280;43392;50.078;13.704;2024-02-26T09:46:16;95710.69;;;6.50;84.56
56894;BME280;43392;50.078;13.704;2024-02-26T09:48:46;95709.84;;;6.26;84.55
56894;BME280;43392;50.078;13.704;2024-02-26T09:51:14;95704.41;;;6.08;84.59
56894;BME280;43392;50.078;13.704;2024-02-26T09:53:43;95711.72;;;5.87;84.17
56894;BME280;43392;50.078;13.704;2024-02-26T09:56:11;95715.25;;;5.67;84.60
56894;BME280;43392;50.078;13.704;2024-02-26T09:58:39;95709.19;;;5.62;85.02
56894;BME280;43392;50.078;13.704;2024-02-26T10:01:11;95722.19;;;5.63;85.04
56894;BME280;43392;50.078;13.704;2024-02-26T10:03:40;95727.75;;;5.67;84.82
56894;BME280;43392;50.078;13.704;2024-02-26T10:06:09;95734.38;;;5.69;84.52
56894;BME280;43392;50.078;13.704;2024-02-26T10:08:36;95744.22;;;5.74;84.21
56894;BME280;43392;50.078;13.704;2024-02-26T10:11:04;95736.47;;;5.77;84.13
56894;BME280;43392;50.078;13.704;2024-02-26T10:13:31;95739.94;;;5.78;84.16
56894;BME280;43392;50.078;13.704;2024-02-26T10:15:58;95731.47;;;5.71;83.94
56894;BME280;43392;50.078;13.704;2024-02-26T10:18:24;95748.50;;;5.65;84.01
56894;BME280;43392;50.078;13.704;2024-02-26T10:21:03;95751.78;;;5.52;84.23
56894;BME280;43392;50.078;13.704;2024-02-26T10:23:29;95754.97;;;5.44;84.41
56894;BME280;43392;50.078;13.704;2024-02-26T10:25:56;95755.50;;;5.41;84.65
56894;BME280;43392;50.078;13.704;2024-02-26T10:28:23;95758.19;;;5.35;84.98
56894;BME280;43392;50.078;13.704;2024-02-26T10:30:51;95756.63;;;5.29;85.32
56894;BME280;43392;50.078;13.704;2024-02-26T10:33:18;95755.03;;;5.28;85.79
56894;BME280;43392;50.078;13.704;2024-02-26T10:35:45;95749.47;;;5.30;85.88
56894;BME280;43392;50.078;13.704;2024-02-26T10:38:13;95744.41;;;5.28;85.91
56894;BME280;43392;50.078;13.704;2024-02-26T10:40:45;95750.50;;;5.29;86.04
56894;BME280;43392;50.078;13.704;2024-02-26T10:43:12;95748.13;;;5.32;86.14
56894;BME280;43392;50.078;13.704;2024-02-26T10:45:40;95746.53;;;5.31;86.14
56894;BME280;43392;50.078;13.704;2024-02-26T10:48:09;95747.88;;;5.24;86.33
56894;BME280;43392;50.078;13.704;2024-02-26T10:50:38;95752.13;;;5.30;86.50
56894;BME280;43392;50.078;13.704;2024-02-26T10:53:07;95747.56;;;5.30;86.41
56894;BME280;43392;50.078;13.704;2024-02-26T10:55:42;95754.00;;;5.24;86.53
56894;BME280;43392;50.078;13.704;2024-02-26T10:58:09;95753.72;;;5.21;86.52
56894;BME280;43392;50.078;13.704;2024-02-26T11:00:38;95752.16;;;5.20;86.87
56894;BME280;43392;50.078;13.704;2024-02-26T11:03:05;95756.38;;;5.26;86.96
56894;BME280;43392;50.078;13.704;2024-02-26T11:05:35;95749.44;;;5.35;86.86
56894;BME280;43392;50.078;13.704;2024-02-26T11:08:04;95756.84;;;5.43;86.74
56894;BME280;43392;50.078;13.704;2024-02-26T11:10:31;95756.56;;;5.50;86.30
56894;BME280;43392;50.078;13.704;2024-02-26T11:13:01;95751.47;;;5.53;85.86
56894;BME280;43392;50.078;13.704;2024-02-26T11:15:28;95754.94;;;5.59;85.80
56894;BME280;43392;50.078;13.704;2024-02-26T11:17:58;95754.38;;;5.62;85.49
56894;BME280;43392;50.078;13.704;2024-02-26T11:20:25;95753.81;;;5.65;85.31
56894;BME280;43392;50.078;13.704;2024-02-26T11:22:53;95749.00;;;5.67;85.25
56894;BME280;43392;50.078;13.704;2024-02-26T11:25:20;95751.94;;;5.70;84.95
56894;BME280;43392;50.078;13.704;2024-02-26T11:27:51;95741.56;;;5.74;84.98
56894;BME280;43392;50.078;13.704;2024-02-26T11:30:21;95733.28;;;5.75;84.71
56894;BME280;43392;50.078;13.704;2024-02-26T11:32:48;95737.56;;;5.76;84.66
56894;BME280;43392;50.078;13.704;2024-02-26T11:35:16;95748.72;;;5.78;84.71
56894;BME280;43392;50.078;13.704;2024-02-26T11:37:52;95744.72;;;5.81;84.42
56894;BME280;43392;50.078;13.704;2024-02-26T11:40:19;95740.22;;;5.76;84.41
56894;BME280;43392;50.078;13.704;2024-02-26T11:42:47;95744.75;;;5.76;84.50
56894;BME280;43392;50.078;13.704;2024-02-26T11:45:51;95751.09;;;5.80;84.67
56894;BME280;43392;50.078;13.704;2024-02-26T11:48:24;95741.22;;;5.90;84.47
56894;BME280;43392;50.078;13.704;2024-02-26T11:50:53;95746.75;;;5.99;84.24
56894;BME280;43392;50.078;13.704;2024-02-26T11:53:21;95737.66;;;6.10;84.00
56894;BME280;43392;50.078;13.704;2024-02-26T11:55:48;95732.28;;;6.15;83.58
56894;BME280;43392;50.078;13.704;2024-02-26T11:58:15;95732.81;;;6.17;83.37
56894;BME280;43392;50.078;13.704;2024-02-26T12:00:42;95726.69;;;6.17;83.28
56894;BME280;43392;50.078;13.704;2024-02-26T12:03:11;95730.66;;;6.19;83.22
56894;BME280;43392;50.078;13.704;2024-02-26T12:05:38;95738.38;;;6.16;83.13
56894;BME280;43392;50.078;13.704;2024-02-26T12:08:07;95727.50;;;6.12;83.40
56894;BME280;43392;50.078;13.704;2024-02-26T12:10:36;95730.69;;;6.14;83.56
56894;BME280;43392;50.078;13.704;2024-02-26T12:13:05;95729.09;;;6.13;83.27
56894;BME280;43392;50.078;13.704;2024-02-26T12:15:36;95731.22;;;6.11;82.96
56894;BME280;43392;50.078;13.704;2024-02-26T12:18:04;95733.88;;;6.16;83.26
56894;BME280;43392;50.078;13.704;2024-02-26T12:20:33;95745.00;;;6.23;83.00
56894;BME280;43392;50.078;13.704;2024-02-26T12:23:01;95749.78;;;6.26;82.62
56894;BME280;43392;50.078;13.704;2024-02-26T12:25:29;95741.53;;;6.23;82.41
56894;BME280;43392;50.078;13.704;2024-02-26T12:27:57;95745.53;;;6.20;82.39
56894;BME280;43392;50.078;13.704;2024-02-26T12:30:24;95750.63;;;6.17;82.51
56894;BME280;43392;50.078;13.704;2024-02-26T12:32:52;95746.13;;;6.17;82.22
56894;BME280;43392;50.078;13.704;2024-02-26T12:35:22;95755.97;;;6.17;82.19
56894;BME280;43392;50.078;13.704;2024-02-26T12:37:50;95769.25;;;6.17;82.15
56894;BME280;43392;50.078;13.704;2024-02-26T12:40:17;95766.31;;;6.18;82.25
56894;BME280;43392;50.078;13.704;2024-02-26T12:42:45;95764.47;;;6.19;82.21
56894;BME280;43392;50.078;13.704;2024-02-26T12:45:12;95754.84;;;6.23;82.47
56894;BME280;43392;50.078;13.704;2024-02-26T12:47:41;95764.44;;;6.24;82.35
56894;BME280;43392;50.078;13.704;2024-02-26T12:50:10;95755.63;;;6.23;82.44
56894;BME280;43392;50.078;13.704;2024-02-26T12:52:39;95752.97;;;6.23;82.43
56894;BME280;43392;50.078;13.704;2024-02-26T12:55:07;95750.56;;;6.27;82.69
56894;BME280;43392;50.078;13.704;2024-02-26T12:57:36;95748.72;;;6.27;82.63
56894;BME280;43392;50.078;13.704;2024-02-26T13:00:05;95747.09;;;6.26;82.89